createdAt,value
2023-03-15T00:00:02.491Z,79.1
2023-03-15T00:15:02.897Z,78.4
2023-03-15T00:30:02.336Z,77.7
2023-03-15T00:45:02.782Z,78.2
2023-03-15T01:00:03.269Z,82.0
2023-03-15T01:15:02.649Z,86.1
2023-03-15T01:30:03.287Z,88.7
2023-03-15T01:45:02.528Z,90.6
2023-03-15T02:00:02.994Z,92.0
2023-03-15T02:15:02.397Z,92.8
2023-03-15T02:30:02.834Z,93.0
2023-03-15T02:45:02.323Z,93.1
2023-03-15T03:00:02.715Z,92.8
2023-03-15T03:15:03.301Z,92.4
2023-03-15T03:30:02.604Z,92.3
2023-03-15T03:45:03.079Z,92.3
2023-03-15T04:00:02.467Z,92.6
2023-03-15T04:15:02.903Z,92.6
2023-03-15T04:30:02.351Z,92.5
2023-03-15T04:45:02.805Z,92.6
2023-03-15T05:00:03.316Z,92.9
2023-03-15T05:15:02.712Z,93.1
2023-03-15T05:30:02.262Z,93.2
2023-03-15T05:45:02.547Z,93.4
2023-03-15T06:00:02.965Z,93.8
2023-03-15T06:15:02.444Z,94.2
2023-03-15T06:30:02.845Z,94.4
2023-03-15T06:45:02.332Z,94.3
2023-03-15T07:00:02.720Z,94.1
2023-03-15T07:15:03.338Z,94.2
2023-03-15T07:30:02.630Z,93.4
2023-03-15T07:45:03.041Z,91.6
2023-03-15T08:00:02.486Z,86.5
2023-03-15T08:15:02.918Z,83.1
2023-03-15T08:30:02.374Z,81.2
2023-03-15T08:45:02.809Z,76.0
2023-03-15T09:00:03.346Z,69.4
2023-03-15T09:15:02.684Z,65.3
2023-03-15T09:30:03.386Z,59.4
2023-03-15T09:45:02.758Z,57.7
2023-03-15T10:00:03.010Z,53.8
2023-03-15T10:15:02.453Z,54.1
2023-03-15T10:30:02.870Z,47.8
2023-03-15T10:45:02.381Z,47.8
2023-03-15T11:00:02.763Z,45.0
2023-03-15T11:15:03.381Z,43.5
2023-03-15T11:30:02.600Z,42.5
2023-03-15T11:45:03.076Z,40.6
2023-03-15T12:00:02.538Z,40.1
2023-03-15T12:15:03.017Z,39.1
2023-03-15T12:30:02.399Z,39.1
2023-03-15T12:45:02.788Z,39.3
2023-03-15T13:00:03.401Z,38.1
2023-03-15T13:15:02.679Z,36.9
2023-03-15T13:30:03.136Z,42.0
2023-03-15T13:45:02.560Z,39.6
2023-03-15T14:00:03.017Z,40.5
2023-03-15T14:15:02.460Z,41.1
2023-03-15T14:30:02.889Z,42.3
2023-03-15T14:45:02.441Z,37.1
2023-03-15T15:00:02.777Z,34.2
2023-03-15T15:15:03.416Z,35.8
2023-03-15T15:30:02.663Z,37.9
2023-03-15T15:45:03.090Z,37.4
2023-03-15T16:00:02.584Z,39.5
2023-03-15T16:15:02.948Z,41.2
2023-03-15T16:30:02.440Z,42.4
2023-03-15T16:45:02.828Z,45.6
2023-03-15T17:00:04.752Z,44.6
2023-03-15T17:15:02.741Z,44.2
2023-03-15T17:30:03.156Z,46.7
2023-03-15T17:45:02.588Z,47.8
2023-03-15T18:00:03.026Z,49.9
2023-03-15T18:15:02.462Z,52.2
2023-03-15T18:30:02.907Z,53.6
2023-03-15T18:45:02.485Z,56.5
2023-03-15T19:00:02.788Z,59.4
2023-03-15T19:15:03.416Z,61.8
2023-03-15T19:30:02.694Z,62.9
2023-03-15T19:45:03.144Z,67.0
2023-03-15T20:00:02.565Z,67.4
2023-03-15T20:15:02.998Z,70.6
2023-03-15T20:30:02.513Z,72.5
2023-03-15T20:45:02.878Z,72.9
2023-03-15T21:00:02.503Z,73.8
2023-03-15T21:15:02.745Z,75.2
2023-03-15T21:30:03.198Z,77.4
2023-03-15T21:45:02.619Z,79.3
2023-03-15T22:00:03.062Z,81.4
2023-03-15T22:15:06.230Z,81.8
2023-03-15T22:30:02.944Z,82.6
2023-03-15T22:45:02.508Z,82.4
2023-03-15T23:00:02.850Z,82.4
2023-03-15T23:15:04.128Z,83.6
2023-03-15T23:30:02.719Z,83.8
2023-03-15T23:45:03.159Z,84.3
